createdAt,value
2023-01-08T00:00:16.041Z,9.00
2023-01-08T00:00:35.846Z,9.00
2023-01-08T00:01:02.483Z,9.00
2023-01-08T00:01:34.265Z,9.00
2023-01-08T00:02:07.152Z,8.88
2023-01-08T00:02:35.345Z,8.88
2023-01-08T00:02:54.396Z,8.88
2023-01-08T00:03:26.479Z,8.88
2023-01-08T00:03:43.345Z,8.88
2023-01-08T00:04:14.281Z,8.88
2023-01-08T00:04:35.645Z,8.88
2023-01-08T00:05:03.560Z,9.00
2023-01-08T00:05:34.294Z,9.00
2023-01-08T00:06:06.727Z,9.00
2023-01-08T00:06:35.667Z,9.00
2023-01-08T00:06:54.234Z,9.00
2023-01-08T00:07:26.255Z,9.00
2023-01-08T00:07:43.133Z,9.00
2023-01-08T00:08:14.242Z,9.00
2023-01-08T00:08:35.673Z,9.11
2023-01-08T00:09:02.255Z,9.11
2023-01-08T00:09:34.249Z,9.11
2023-01-08T00:10:07.099Z,9.11
2023-01-08T00:10:35.738Z,9.11
2023-01-08T00:10:54.530Z,9.11
2023-01-08T00:11:26.296Z,9.11
2023-01-08T00:11:43.826Z,9.11
2023-01-08T00:12:14.207Z,9.11
2023-01-08T00:12:36.528Z,9.11
2023-01-08T00:13:02.294Z,9.11
2023-01-08T00:13:34.229Z,9.22
2023-01-08T00:14:06.724Z,9.22
2023-01-08T00:14:35.135Z,9.22
2023-01-08T00:14:54.916Z,9.22
2023-01-08T00:15:26.854Z,9.22
2023-01-08T00:15:43.146Z,9.22
2023-01-08T00:16:14.326Z,9.22
2023-01-08T00:16:35.746Z,9.27
2023-01-08T00:17:02.275Z,9.27
2023-01-08T00:17:34.259Z,9.27
2023-01-08T00:18:07.141Z,9.27
2023-01-08T00:18:35.171Z,9.27
2023-01-08T00:18:54.297Z,9.27
2023-01-08T00:19:26.350Z,9.27
2023-01-08T00:19:43.218Z,9.27
2023-01-08T00:20:14.544Z,9.27
2023-01-08T00:20:36.690Z,9.27
2023-01-08T00:21:02.470Z,9.27
2023-01-08T00:21:34.267Z,9.27
2023-01-08T00:22:07.801Z,9.27
2023-01-08T00:22:35.150Z,9.27
2023-01-08T00:22:54.217Z,9.27
2023-01-08T00:23:26.269Z,9.27
2023-01-08T00:23:43.169Z,9.27
2023-01-08T00:24:14.261Z,9.27
2023-01-08T00:24:35.616Z,9.27
2023-01-08T00:25:03.490Z,9.27
2023-01-08T00:25:34.324Z,9.27
2023-01-08T00:26:06.781Z,9.22
2023-01-08T00:26:35.211Z,9.22
2023-01-08T00:26:54.265Z,9.22
2023-01-08T00:27:26.299Z,9.27
2023-01-08T00:27:44.109Z,9.27
2023-01-08T00:28:14.245Z,9.27
2023-01-08T00:28:35.796Z,9.27
2023-01-08T00:29:02.269Z,9.27
2023-01-08T00:29:34.305Z,9.27
2023-01-08T00:30:12.011Z,9.27
2023-01-08T00:30:35.195Z,9.27
2023-01-08T00:30:55.282Z,9.27
2023-01-08T00:31:26.271Z,9.27
2023-01-08T00:31:43.139Z,9.27
2023-01-08T00:32:14.262Z,9.38
2023-01-08T00:32:35.656Z,9.38
2023-01-08T00:33:03.167Z,9.38
2023-01-08T00:33:37.098Z,9.38
2023-01-08T00:34:06.717Z,9.38
2023-01-08T00:34:35.180Z,9.38
2023-01-08T00:34:54.245Z,9.38
2023-01-08T00:35:26.553Z,9.38
2023-01-08T00:35:43.170Z,9.38
2023-01-08T00:36:14.271Z,9.38
2023-01-08T00:36:37.212Z,9.38
2023-01-08T00:37:02.226Z,9.50
2023-01-08T00:37:34.354Z,9.50
2023-01-08T00:38:06.671Z,9.50
2023-01-08T00:38:35.205Z,9.50
2023-01-08T00:38:54.253Z,9.50
2023-01-08T00:39:26.247Z,9.50
2023-01-08T00:39:43.958Z,9.50
2023-01-08T00:40:14.555Z,9.50
2023-01-08T00:40:35.647Z,9.38
2023-01-08T00:41:02.229Z,9.38
2023-01-08T00:41:34.367Z,9.27
2023-01-08T00:42:06.686Z,9.22
2023-01-08T00:42:35.516Z,9.22
2023-01-08T00:42:55.072Z,9.11
2023-01-08T00:43:26.258Z,9.11
2023-01-08T00:43:58.464Z,9.11
2023-01-08T00:44:30.572Z,9.00
2023-01-08T00:45:03.749Z,9.00
2023-01-08T00:45:34.304Z,9.00
2023-01-08T00:46:07.696Z,8.88
2023-01-08T00:46:35.649Z,8.88
2023-01-08T00:46:54.216Z,8.88
2023-01-08T00:47:26.210Z,8.88
2023-01-08T00:47:43.146Z,8.88
2023-01-08T00:48:14.265Z,8.88
2023-01-08T00:48:35.619Z,8.88
2023-01-08T00:49:02.310Z,8.77
2023-01-08T00:49:34.295Z,8.77
2023-01-08T00:50:07.135Z,8.77
2023-01-08T00:50:35.578Z,8.77
2023-01-08T00:50:54.706Z,8.88
2023-01-08T00:51:26.285Z,8.88
2023-01-08T00:51:43.150Z,8.88
2023-01-08T00:52:14.231Z,8.88
2023-01-08T00:52:35.635Z,8.77
2023-01-08T00:53:02.377Z,8.77
2023-01-08T00:53:34.366Z,8.77
2023-01-08T00:54:06.811Z,8.77
2023-01-08T00:54:35.149Z,8.77
2023-01-08T00:54:54.232Z,8.77
2023-01-08T00:55:26.572Z,8.77
2023-01-08T00:55:44.012Z,8.77
2023-01-08T00:56:14.216Z,8.72
2023-01-08T00:56:35.615Z,8.72
2023-01-08T00:57:02.211Z,8.72
2023-01-08T00:57:34.422Z,8.72
2023-01-08T00:58:06.614Z,8.72
2023-01-08T00:58:35.143Z,8.72
2023-01-08T00:58:54.967Z,8.72
2023-01-08T00:59:26.300Z,8.72
2023-01-08T00:59:43.192Z,8.72
2023-01-08T01:00:15.804Z,8.72
2023-01-08T01:00:35.662Z,8.72
2023-01-08T01:01:02.406Z,8.72
2023-01-08T01:01:34.432Z,8.72
2023-01-08T01:02:07.424Z,8.72
2023-01-08T01:02:35.139Z,8.72
2023-01-08T01:02:54.264Z,8.72
2023-01-08T01:03:26.439Z,8.72
2023-01-08T01:03:42.953Z,8.72
2023-01-08T01:04:14.503Z,8.72
2023-01-08T01:04:35.822Z,8.61
2023-01-08T01:05:03.381Z,8.61
2023-01-08T01:05:34.348Z,8.61
2023-01-08T01:06:06.779Z,8.61
2023-01-08T01:06:35.131Z,8.61
2023-01-08T01:06:54.213Z,8.61
2023-01-08T01:07:26.247Z,8.61
2023-01-08T01:07:58.514Z,8.61
2023-01-08T01:08:31.380Z,8.61
2023-01-08T01:09:02.211Z,8.50
2023-01-08T01:09:34.412Z,8.50
2023-01-08T01:10:07.268Z,8.50
2023-01-08T01:10:35.327Z,8.50
2023-01-08T01:10:54.633Z,8.50
2023-01-08T01:11:26.415Z,8.50
2023-01-08T01:11:43.921Z,8.50
2023-01-08T01:12:14.240Z,8.50
2023-01-08T01:12:35.607Z,8.50
2023-01-08T01:13:02.228Z,8.50
2023-01-08T01:13:34.225Z,8.50
2023-01-08T01:14:06.844Z,8.50
2023-01-08T01:14:35.210Z,8.50
2023-01-08T01:14:54.972Z,8.61
2023-01-08T01:15:26.853Z,8.61
2023-01-08T01:15:58.568Z,8.61
2023-01-08T01:16:30.443Z,8.72
2023-01-08T01:17:02.508Z,8.72
2023-01-08T01:17:34.233Z,8.72
2023-01-08T01:18:07.375Z,8.72
2023-01-08T01:18:35.128Z,8.72
2023-01-08T01:19:02.140Z,8.72
2023-01-08T01:19:26.211Z,8.72
2023-01-08T01:19:43.187Z,8.72
2023-01-08T01:20:14.526Z,8.72
2023-01-08T01:20:35.735Z,8.72
2023-01-08T01:21:02.302Z,8.72
2023-01-08T01:21:34.214Z,8.72
2023-01-08T01:22:06.811Z,8.72
2023-01-08T01:22:35.644Z,8.72
2023-01-08T01:22:54.501Z,8.77
2023-01-08T01:23:26.483Z,8.77
2023-01-08T01:23:42.950Z,8.77
2023-01-08T01:24:14.199Z,8.77
2023-01-08T01:24:36.147Z,8.77
2023-01-08T01:25:03.307Z,8.77
2023-01-08T01:25:34.260Z,8.77
2023-01-08T01:26:06.652Z,8.72
2023-01-08T01:26:35.178Z,8.72
2023-01-08T01:26:54.244Z,8.72
2023-01-08T01:27:26.235Z,8.72
2023-01-08T01:27:44.215Z,8.72
2023-01-08T01:28:14.217Z,8.72
2023-01-08T01:28:35.663Z,8.72
2023-01-08T01:29:02.196Z,8.72
2023-01-08T01:29:34.304Z,8.72
2023-01-08T01:30:08.353Z,8.72
2023-01-08T01:30:35.593Z,8.72
2023-01-08T01:30:55.361Z,8.72
2023-01-08T01:31:26.370Z,8.72
2023-01-08T01:31:58.595Z,8.61
2023-01-08T01:32:30.337Z,8.61
2023-01-08T01:33:02.941Z,8.61
2023-01-08T01:33:34.558Z,8.61
2023-01-08T01:34:06.686Z,8.61
2023-01-08T01:34:35.548Z,8.61
2023-01-08T01:34:54.266Z,8.61
2023-01-08T01:35:26.512Z,8.61
2023-01-08T01:35:43.168Z,8.61
2023-01-08T01:36:14.228Z,8.61
2023-01-08T01:36:37.206Z,8.61
2023-01-08T01:37:02.258Z,8.61
2023-01-08T01:37:34.207Z,8.61
2023-01-08T01:38:06.647Z,8.61
2023-01-08T01:38:35.130Z,8.61
2023-01-08T01:38:54.213Z,8.61
2023-01-08T01:39:26.263Z,8.61
2023-01-08T01:39:59.177Z,8.61
2023-01-08T01:40:31.229Z,8.61
2023-01-08T01:41:02.465Z,8.61
2023-01-08T01:41:34.678Z,8.61
2023-01-08T01:42:06.859Z,8.61
2023-01-08T01:42:35.858Z,8.50
2023-01-08T01:42:54.249Z,8.50
2023-01-08T01:43:27.145Z,8.50
2023-01-08T01:43:43.173Z,8.50
2023-01-08T01:44:15.399Z,8.50
2023-01-08T01:44:35.787Z,8.50
2023-01-08T01:45:07.852Z,8.50
2023-01-08T01:45:34.281Z,8.50
2023-01-08T01:46:09.387Z,8.50
2023-01-08T01:46:35.814Z,8.50
2023-01-08T01:46:54.438Z,8.50
2023-01-08T01:47:26.516Z,8.61
2023-01-08T01:47:43.499Z,8.61
2023-01-08T01:48:14.619Z,8.61
2023-01-08T01:48:35.937Z,8.61
2023-01-08T01:49:02.791Z,8.50
2023-01-08T01:49:35.275Z,8.50
2023-01-08T01:50:07.619Z,8.50
2023-01-08T01:50:35.788Z,8.50
2023-01-08T01:50:54.974Z,8.50
2023-01-08T01:51:26.501Z,8.50
2023-01-08T01:51:42.883Z,8.50
2023-01-08T01:52:14.798Z,8.50
2023-01-08T01:52:37.057Z,8.50
2023-01-08T01:53:02.376Z,8.50
2023-01-08T01:53:34.226Z,8.50
2023-01-08T01:54:06.798Z,8.50
2023-01-08T01:54:35.130Z,8.50
2023-01-08T01:54:54.479Z,8.50
2023-01-08T01:55:26.629Z,8.50
2023-01-08T01:55:44.009Z,8.50
2023-01-08T01:56:14.247Z,8.50
2023-01-08T01:56:35.733Z,8.50
2023-01-08T01:57:02.297Z,8.61
2023-01-08T01:57:34.292Z,8.61
2023-01-08T01:58:06.712Z,8.61
2023-01-08T01:58:35.191Z,8.61
2023-01-08T01:58:54.970Z,8.61
2023-01-08T01:59:26.298Z,8.61
2023-01-08T01:59:43.231Z,8.61
2023-01-08T02:00:16.523Z,8.61
2023-01-08T02:00:35.676Z,8.61
2023-01-08T02:01:02.360Z,8.61
2023-01-08T02:01:34.373Z,8.61
2023-01-08T02:02:07.616Z,8.61
2023-01-08T02:02:35.342Z,8.61
2023-01-08T02:02:54.281Z,8.61
2023-01-08T02:03:26.277Z,8.61
2023-01-08T02:03:42.969Z,8.61
2023-01-08T02:04:14.377Z,8.61
2023-01-08T02:04:35.878Z,8.61
2023-01-08T02:05:03.638Z,8.61
2023-01-08T02:05:35.003Z,8.61
2023-01-08T02:06:06.815Z,8.50
2023-01-08T02:06:35.255Z,8.50
2023-01-08T02:06:54.259Z,8.50
2023-01-08T02:07:26.277Z,8.50
2023-01-08T02:07:43.189Z,8.50
2023-01-08T02:08:14.396Z,8.50
2023-01-08T02:08:35.654Z,8.50
2023-01-08T02:09:02.364Z,8.50
2023-01-08T02:09:34.574Z,8.50
2023-01-08T02:10:06.940Z,8.50
2023-01-08T02:10:35.175Z,8.50
2023-01-08T02:10:54.542Z,8.50
2023-01-08T02:11:26.299Z,8.50
2023-01-08T02:11:44.070Z,8.50
2023-01-08T02:12:14.259Z,8.50
2023-01-08T02:12:36.179Z,8.50
2023-01-08T02:13:02.267Z,8.50
2023-01-08T02:13:34.967Z,8.50
2023-01-08T02:14:06.938Z,8.50
2023-01-08T02:14:35.279Z,8.50
2023-01-08T02:14:55.042Z,8.50
2023-01-08T02:15:26.916Z,8.50
2023-01-08T02:15:43.183Z,8.50
2023-01-08T02:16:14.561Z,8.50
2023-01-08T02:16:36.012Z,8.50
2023-01-08T02:17:02.326Z,8.50
2023-01-08T02:17:34.530Z,8.50
2023-01-08T02:18:07.439Z,8.50
2023-01-08T02:18:35.530Z,8.50
2023-01-08T02:18:54.250Z,8.50
2023-01-08T02:19:26.280Z,8.50
2023-01-08T02:19:43.141Z,8.50
2023-01-08T02:20:14.539Z,8.50
2023-01-08T02:20:36.317Z,8.61
2023-01-08T02:21:02.289Z,8.61
2023-01-08T02:21:34.474Z,8.61
2023-01-08T02:22:06.749Z,8.72
2023-01-08T02:22:35.208Z,8.72
2023-01-08T02:22:54.325Z,8.72
2023-01-08T02:23:26.267Z,8.72
2023-01-08T02:23:43.150Z,8.72
2023-01-08T02:24:14.254Z,8.72
2023-01-08T02:24:35.770Z,8.72
2023-01-08T02:25:03.450Z,8.72
2023-01-08T02:25:34.267Z,8.77
2023-01-08T02:26:06.824Z,8.77
2023-01-08T02:26:35.352Z,8.77
2023-01-08T02:26:54.261Z,8.88
2023-01-08T02:27:26.282Z,8.88
2023-01-08T02:27:43.962Z,8.88
2023-01-08T02:28:14.241Z,8.88
2023-01-08T02:28:36.160Z,8.88
2023-01-08T02:29:02.246Z,9.00
2023-01-08T02:29:34.266Z,9.00
2023-01-08T02:30:11.528Z,9.00
2023-01-08T02:30:35.244Z,9.00
2023-01-08T02:30:55.274Z,9.00
2023-01-08T02:31:26.263Z,9.00
2023-01-08T02:31:43.150Z,9.00
2023-01-08T02:32:14.278Z,9.00
2023-01-08T02:32:35.661Z,9.00
2023-01-08T02:33:03.046Z,9.00
2023-01-08T02:33:34.365Z,9.00
2023-01-08T02:34:06.268Z,9.00
2023-01-08T02:34:35.166Z,9.00
2023-01-08T02:34:54.292Z,9.00
2023-01-08T02:35:26.552Z,9.00
2023-01-08T02:35:43.209Z,9.00
2023-01-08T02:36:14.260Z,9.00
2023-01-08T02:36:36.908Z,9.00
2023-01-08T02:37:02.276Z,9.00
2023-01-08T02:37:34.511Z,9.00
2023-01-08T02:38:06.262Z,9.00
2023-01-08T02:38:35.119Z,9.00
2023-01-08T02:38:54.249Z,9.00
2023-01-08T02:39:26.221Z,9.00
2023-01-08T02:39:43.951Z,9.00
2023-01-08T02:40:14.894Z,9.00
2023-01-08T02:40:35.715Z,9.00
2023-01-08T02:41:02.198Z,9.00
2023-01-08T02:41:34.212Z,9.11
2023-01-08T02:42:06.275Z,9.11
2023-01-08T02:42:35.152Z,9.11
2023-01-08T02:42:54.921Z,9.11
2023-01-08T02:43:26.256Z,9.11
2023-01-08T02:43:43.157Z,9.11
2023-01-08T02:44:14.263Z,9.11
2023-01-08T02:44:35.643Z,9.00
2023-01-08T02:45:03.843Z,9.00
2023-01-08T02:45:34.280Z,9.00
2023-01-08T02:46:07.981Z,9.00
2023-01-08T02:46:35.293Z,9.00
2023-01-08T02:46:54.226Z,9.00
2023-01-08T02:47:26.190Z,9.00
2023-01-08T02:47:43.136Z,9.00
2023-01-08T02:48:14.213Z,9.00
2023-01-08T02:48:35.646Z,9.00
2023-01-08T02:49:02.192Z,9.00
2023-01-08T02:49:35.007Z,9.00
2023-01-08T02:50:06.876Z,9.00
2023-01-08T02:50:35.161Z,9.00
2023-01-08T02:50:54.523Z,9.00
2023-01-08T02:51:26.202Z,9.00
2023-01-08T02:51:43.141Z,9.11
2023-01-08T02:52:14.191Z,9.11
2023-01-08T02:52:35.583Z,9.11
2023-01-08T02:53:02.424Z,9.11
2023-01-08T02:53:34.730Z,9.11
2023-01-08T02:54:06.321Z,9.11
2023-01-08T02:54:35.145Z,9.11
2023-01-08T02:54:54.224Z,9.11
2023-01-08T02:55:26.463Z,9.11
2023-01-08T02:55:43.878Z,9.11
2023-01-08T02:56:14.208Z,9.11
2023-01-08T02:56:35.899Z,9.11
2023-01-08T02:57:02.210Z,9.11
2023-01-08T02:57:34.241Z,9.11
2023-01-08T02:58:06.237Z,9.11
2023-01-08T02:58:35.531Z,9.11
2023-01-08T02:58:54.916Z,9.22
2023-01-08T02:59:26.239Z,9.22
2023-01-08T02:59:43.174Z,9.22
2023-01-08T03:00:15.605Z,9.22
2023-01-08T03:00:36.141Z,9.22
2023-01-08T03:01:02.353Z,9.22
2023-01-08T03:01:34.338Z,9.22
2023-01-08T03:02:07.665Z,9.27
2023-01-08T03:02:35.347Z,9.27
2023-01-08T03:02:54.193Z,9.27
2023-01-08T03:03:26.196Z,9.27
2023-01-08T03:03:43.017Z,9.27
2023-01-08T03:04:14.315Z,9.27
2023-01-08T03:04:36.064Z,9.27
2023-01-08T03:05:03.516Z,9.27
2023-01-08T03:05:34.609Z,9.27
2023-01-08T03:06:06.229Z,9.27
2023-01-08T03:06:35.218Z,9.27
2023-01-08T03:06:54.223Z,9.38
2023-01-08T03:07:26.240Z,9.38
2023-01-08T03:07:43.022Z,9.38
2023-01-08T03:08:14.305Z,9.38
2023-01-08T03:08:35.808Z,9.38
2023-01-08T03:09:02.283Z,9.38
2023-01-08T03:09:34.241Z,9.38
2023-01-08T03:10:07.016Z,9.38
2023-01-08T03:10:35.235Z,9.38
2023-01-08T03:10:54.480Z,9.38
2023-01-08T03:11:26.215Z,9.38
2023-01-08T03:11:43.779Z,9.38
2023-01-08T03:12:14.226Z,9.38
2023-01-08T03:12:35.710Z,9.38
2023-01-08T03:13:02.324Z,9.38
2023-01-08T03:13:34.215Z,9.38
2023-01-08T03:14:22.644Z,9.27
2023-01-08T03:14:39.652Z,9.27
2023-01-08T03:15:10.857Z,9.27
2023-01-08T03:15:35.741Z,9.27
2023-01-08T03:15:58.719Z,9.27
2023-01-08T03:16:30.301Z,9.27
2023-01-08T03:17:02.401Z,9.27
2023-01-08T03:17:34.299Z,9.27
2023-01-08T03:18:07.460Z,9.27
2023-01-08T03:18:35.119Z,9.27
2023-01-08T03:18:54.282Z,9.27
2023-01-08T03:19:26.316Z,9.27
2023-01-08T03:19:58.519Z,9.27
2023-01-08T03:20:30.763Z,9.27
2023-01-08T03:21:02.237Z,9.27
2023-01-08T03:21:34.505Z,9.27
2023-01-08T03:22:06.223Z,9.27
2023-01-08T03:22:35.209Z,9.27
2023-01-08T03:22:54.242Z,9.27
2023-01-08T03:23:26.271Z,9.27
2023-01-08T03:23:58.396Z,9.27
2023-01-08T03:24:31.309Z,9.27
2023-01-08T03:25:03.300Z,9.27
2023-01-08T03:25:34.262Z,9.27
2023-01-08T03:26:06.346Z,9.27
2023-01-08T03:26:35.160Z,9.27
2023-01-08T03:26:54.272Z,9.27
2023-01-08T03:27:26.388Z,9.27
2023-01-08T03:27:43.878Z,9.22
2023-01-08T03:28:14.282Z,9.22
2023-01-08T03:28:35.895Z,9.22
2023-01-08T03:29:02.360Z,9.22
2023-01-08T03:29:34.242Z,9.22
2023-01-08T03:30:08.301Z,9.22
2023-01-08T03:30:35.301Z,9.22
2023-01-08T03:30:55.568Z,9.22
2023-01-08T03:31:26.415Z,9.11
2023-01-08T03:31:58.603Z,9.11
2023-01-08T03:32:30.410Z,9.11
2023-01-08T03:33:02.961Z,9.11
2023-01-08T03:33:34.280Z,9.11
2023-01-08T03:34:06.253Z,9.11
2023-01-08T03:34:35.169Z,9.11
2023-01-08T03:34:54.253Z,9.11
2023-01-08T03:35:26.456Z,9.11
2023-01-08T03:35:43.097Z,9.11
2023-01-08T03:36:14.419Z,9.11
2023-01-08T03:36:37.174Z,9.11
2023-01-08T03:37:02.395Z,9.00
2023-01-08T03:37:34.273Z,9.00
2023-01-08T03:38:06.189Z,9.00
2023-01-08T03:38:35.719Z,9.00
2023-01-08T03:38:54.246Z,9.00
2023-01-08T03:39:26.251Z,9.00
2023-01-08T03:39:46.815Z,9.00
2023-01-08T03:40:14.416Z,9.00
2023-01-08T03:40:36.332Z,9.00
2023-01-08T03:41:02.238Z,9.00
2023-01-08T03:41:34.238Z,9.00
2023-01-08T03:42:06.232Z,9.00
2023-01-08T03:42:35.524Z,9.00
2023-01-08T03:42:54.988Z,9.00
2023-01-08T03:43:26.214Z,9.00
2023-01-08T03:43:43.140Z,9.00
2023-01-08T03:44:14.223Z,9.00
2023-01-08T03:44:35.609Z,9.00
2023-01-08T03:45:03.573Z,9.00
2023-01-08T03:45:34.246Z,8.88
2023-01-08T03:46:07.788Z,8.88
2023-01-08T03:46:35.176Z,8.88
2023-01-08T03:46:54.410Z,8.88
2023-01-08T03:47:26.230Z,8.88
2023-01-08T03:47:43.356Z,8.88
2023-01-08T03:48:14.313Z,8.88
2023-01-08T03:48:35.780Z,8.88
2023-01-08T03:49:02.187Z,8.88
2023-01-08T03:49:34.445Z,8.88
2023-01-08T03:50:06.915Z,8.88
2023-01-08T03:50:35.577Z,8.88
2023-01-08T03:50:54.448Z,8.88
2023-01-08T03:51:26.408Z,8.88
2023-01-08T03:51:43.034Z,8.88
2023-01-08T03:52:14.254Z,8.88
2023-01-08T03:52:35.663Z,8.88
2023-01-08T03:53:02.274Z,8.88
2023-01-08T03:53:34.329Z,8.88
2023-01-08T03:54:06.236Z,8.77
2023-01-08T03:54:35.654Z,8.77
2023-01-08T03:54:54.313Z,8.77
2023-01-08T03:55:26.566Z,8.77
2023-01-08T03:55:59.488Z,8.77
2023-01-08T03:56:30.354Z,8.77
2023-01-08T03:57:02.413Z,8.77
2023-01-08T03:57:34.667Z,8.77
2023-01-08T03:58:06.271Z,8.77
2023-01-08T03:58:35.144Z,8.77
2023-01-08T03:58:54.260Z,8.72
2023-01-08T03:59:26.258Z,8.72
2023-01-08T03:59:43.168Z,8.72
2023-01-08T04:00:15.899Z,8.72
2023-01-08T04:00:35.656Z,8.72
2023-01-08T04:01:02.398Z,8.72
2023-01-08T04:01:34.362Z,8.72
2023-01-08T04:02:07.730Z,8.72
2023-01-08T04:02:35.252Z,8.72
2023-01-08T04:02:54.381Z,8.72
2023-01-08T04:03:26.218Z,8.72
2023-01-08T04:03:42.842Z,8.72
2023-01-08T04:04:14.356Z,8.72
2023-01-08T04:04:35.688Z,8.72
2023-01-08T04:05:03.401Z,8.72
2023-01-08T04:05:36.050Z,8.72
2023-01-08T04:06:06.314Z,8.72
2023-01-08T04:06:35.276Z,8.72
2023-01-08T04:06:54.197Z,8.72
2023-01-08T04:07:26.203Z,8.72
2023-01-08T04:07:43.398Z,8.72
2023-01-08T04:08:14.220Z,8.72
2023-01-08T04:08:35.797Z,8.72
2023-01-08T04:09:02.298Z,8.72
2023-01-08T04:09:34.197Z,8.72
2023-01-08T04:10:07.114Z,8.72
2023-01-08T04:10:35.297Z,8.72
2023-01-08T04:10:54.475Z,8.72
2023-01-08T04:11:26.265Z,8.72
2023-01-08T04:11:59.191Z,8.72
2023-01-08T04:12:30.250Z,8.72
2023-01-08T04:13:02.317Z,8.72
2023-01-08T04:13:34.762Z,8.72
2023-01-08T04:14:06.343Z,8.72
2023-01-08T04:14:35.176Z,8.72
2023-01-08T04:14:54.208Z,8.72
2023-01-08T04:15:26.789Z,8.61
2023-01-08T04:15:43.185Z,8.61
2023-01-08T04:16:14.501Z,8.61
2023-01-08T04:16:35.750Z,8.61
2023-01-08T04:17:02.224Z,8.61
2023-01-08T04:17:34.421Z,8.61
2023-01-08T04:18:11.005Z,8.61
2023-01-08T04:18:35.701Z,8.61
2023-01-08T04:18:54.205Z,8.61
2023-01-08T04:19:26.212Z,8.61
2023-01-08T04:19:43.219Z,8.61
2023-01-08T04:20:14.624Z,8.61
2023-01-08T04:20:35.741Z,8.61
2023-01-08T04:21:02.326Z,8.61
2023-01-08T04:21:35.279Z,8.61
2023-01-08T04:22:06.285Z,8.61
2023-01-08T04:22:35.073Z,8.61
2023-01-08T04:22:54.212Z,8.61
2023-01-08T04:23:26.208Z,8.61
2023-01-08T04:23:43.143Z,8.61
2023-01-08T04:24:14.251Z,8.61
2023-01-08T04:24:36.303Z,8.61
2023-01-08T04:25:03.288Z,8.72
2023-01-08T04:25:34.220Z,8.72
2023-01-08T04:26:06.221Z,8.72
2023-01-08T04:26:35.628Z,8.72
2023-01-08T04:26:54.217Z,8.72
2023-01-08T04:27:26.217Z,8.72
2023-01-08T04:27:45.521Z,8.72
2023-01-08T04:28:14.214Z,8.72
2023-01-08T04:28:36.219Z,8.72
2023-01-08T04:29:02.257Z,8.72
2023-01-08T04:29:34.192Z,8.72
2023-01-08T04:30:08.606Z,8.72
2023-01-08T04:30:35.134Z,8.72
2023-01-08T04:30:55.325Z,8.72
2023-01-08T04:31:26.325Z,8.72
2023-01-08T04:31:43.129Z,8.72
2023-01-08T04:32:14.236Z,8.72
2023-01-08T04:32:35.716Z,8.72
2023-01-08T04:33:03.005Z,8.72
2023-01-08T04:33:34.235Z,8.72
2023-01-08T04:34:07.535Z,8.72
2023-01-08T04:34:35.130Z,8.72
2023-01-08T04:34:54.231Z,8.72
2023-01-08T04:35:26.645Z,8.72
2023-01-08T04:35:58.550Z,8.72
2023-01-08T04:36:30.261Z,8.72
2023-01-08T04:37:02.230Z,8.72
2023-01-08T04:37:34.249Z,8.72
2023-01-08T04:38:06.197Z,8.72
2023-01-08T04:38:35.457Z,8.72
2023-01-08T04:38:54.297Z,8.72
2023-01-08T04:39:26.222Z,8.72
2023-01-08T04:39:43.139Z,8.72
2023-01-08T04:40:14.428Z,8.72
2023-01-08T04:40:35.843Z,8.72
2023-01-08T04:41:02.594Z,8.72
2023-01-08T04:41:34.223Z,8.72
2023-01-08T04:42:06.209Z,8.61
2023-01-08T04:42:35.090Z,8.61
2023-01-08T04:42:54.238Z,8.61
2023-01-08T04:43:26.328Z,8.61
2023-01-08T04:43:59.279Z,8.61
2023-01-08T04:44:30.254Z,8.61
2023-01-08T04:45:03.612Z,8.50
2023-01-08T04:45:34.228Z,8.50
2023-01-08T04:46:07.827Z,8.38
2023-01-08T04:46:35.151Z,8.38
2023-01-08T04:46:54.187Z,8.38
2023-01-08T04:47:26.268Z,8.38
2023-01-08T04:47:43.160Z,8.27
2023-01-08T04:48:14.295Z,8.27
2023-01-08T04:48:35.651Z,8.27
2023-01-08T04:49:02.274Z,8.27
2023-01-08T04:49:34.365Z,8.27
2023-01-08T04:50:07.045Z,8.27
2023-01-08T04:50:35.140Z,8.22
2023-01-08T04:50:54.486Z,8.22
2023-01-08T04:51:26.289Z,8.22
2023-01-08T04:51:43.202Z,8.22
2023-01-08T04:52:14.285Z,8.22
2023-01-08T04:52:35.676Z,8.22
2023-01-08T04:53:02.274Z,8.11
2023-01-08T04:53:36.184Z,8.11
2023-01-08T04:54:06.289Z,8.11
2023-01-08T04:54:35.195Z,8.11
2023-01-08T04:54:54.262Z,8.11
2023-01-08T04:55:26.510Z,8.11
2023-01-08T04:55:43.165Z,8.11
2023-01-08T04:56:14.262Z,8.11
2023-01-08T04:56:37.442Z,8.00
2023-01-08T04:57:02.270Z,8.00
2023-01-08T04:57:34.306Z,8.00
2023-01-08T04:58:06.219Z,8.00
2023-01-08T04:58:35.106Z,8.00
2023-01-08T04:58:54.204Z,8.00
2023-01-08T04:59:26.205Z,8.00
2023-01-08T04:59:43.809Z,8.00
2023-01-08T05:00:15.770Z,8.00
2023-01-08T05:00:36.210Z,8.00
2023-01-08T05:01:02.262Z,8.00
2023-01-08T05:01:34.547Z,8.00
2023-01-08T05:02:06.071Z,8.00
2023-01-08T05:02:34.785Z,8.00
2023-01-08T05:02:54.772Z,7.88
2023-01-08T05:03:25.835Z,7.88
2023-01-08T05:03:42.553Z,7.88
2023-01-08T05:04:13.720Z,7.88
2023-01-08T05:04:35.068Z,7.88
2023-01-08T05:05:02.248Z,7.88
2023-01-08T05:05:33.785Z,7.88
2023-01-08T05:06:07.494Z,7.88
2023-01-08T05:06:35.053Z,7.88
2023-01-08T05:06:54.385Z,7.88
2023-01-08T05:07:26.494Z,7.88
2023-01-08T05:07:43.167Z,7.88
2023-01-08T05:08:14.260Z,7.88
2023-01-08T05:08:35.650Z,7.88
2023-01-08T05:09:02.197Z,7.88
2023-01-08T05:09:34.655Z,7.88
2023-01-08T05:10:06.460Z,7.88
2023-01-08T05:10:35.077Z,7.88
2023-01-08T05:10:54.402Z,7.77
2023-01-08T05:11:26.248Z,7.88
2023-01-08T05:11:43.179Z,7.88
2023-01-08T05:12:14.270Z,7.88
2023-01-08T05:12:35.654Z,7.88
2023-01-08T05:13:02.273Z,7.88
2023-01-08T05:13:34.714Z,7.88
2023-01-08T05:14:06.232Z,8.00
2023-01-08T05:14:35.169Z,8.00
2023-01-08T05:14:54.297Z,8.00
2023-01-08T05:15:27.027Z,7.88
2023-01-08T05:15:44.049Z,7.88
2023-01-08T05:16:14.391Z,7.88
2023-01-08T05:16:35.651Z,7.88
2023-01-08T05:17:02.315Z,7.88
2023-01-08T05:17:34.703Z,7.88
2023-01-08T05:18:06.301Z,7.88
2023-01-08T05:18:35.639Z,7.88
2023-01-08T05:18:54.955Z,7.88
2023-01-08T05:19:26.341Z,7.88
2023-01-08T05:19:43.207Z,7.88
2023-01-08T05:20:14.517Z,7.88
2023-01-08T05:20:35.615Z,7.88
2023-01-08T05:21:02.340Z,7.88
2023-01-08T05:21:34.687Z,7.88
2023-01-08T05:22:07.016Z,7.77
2023-01-08T05:22:35.062Z,7.77
2023-01-08T05:22:54.255Z,7.77
2023-01-08T05:23:26.309Z,7.77
2023-01-08T05:23:43.577Z,7.77
2023-01-08T05:24:14.263Z,7.77
2023-01-08T05:24:35.833Z,7.77
2023-01-08T05:25:03.887Z,7.77
2023-01-08T05:25:34.655Z,7.77
2023-01-08T05:26:06.338Z,7.77
2023-01-08T05:26:35.112Z,7.77
2023-01-08T05:26:54.268Z,7.77
2023-01-08T05:27:26.291Z,7.77
2023-01-08T05:27:43.201Z,7.77
2023-01-08T05:28:14.312Z,7.77
2023-01-08T05:28:36.241Z,7.77
2023-01-08T05:29:02.256Z,7.77
2023-01-08T05:29:34.724Z,7.77
2023-01-08T05:30:07.871Z,7.77
2023-01-08T05:30:35.171Z,7.77
2023-01-08T05:30:54.570Z,7.77
2023-01-08T05:31:26.352Z,7.77
2023-01-08T05:31:44.372Z,7.77
2023-01-08T05:32:14.239Z,7.77
2023-01-08T05:32:36.133Z,7.77
2023-01-08T05:33:03.311Z,7.77
2023-01-08T05:33:34.674Z,7.77
2023-01-08T05:34:06.300Z,7.77
2023-01-08T05:34:35.429Z,7.77
2023-01-08T05:34:54.261Z,7.72
2023-01-08T05:35:26.558Z,7.72
2023-01-08T05:35:43.184Z,7.72
2023-01-08T05:36:14.361Z,7.72
2023-01-08T05:36:36.613Z,7.72
2023-01-08T05:37:02.274Z,7.72
2023-01-08T05:37:34.776Z,7.72
2023-01-08T05:38:06.264Z,7.72
2023-01-08T05:38:35.614Z,7.72
2023-01-08T05:38:54.298Z,7.72
2023-01-08T05:39:26.292Z,7.72
2023-01-08T05:39:43.975Z,7.72
2023-01-08T05:40:14.534Z,7.72
2023-01-08T05:40:36.118Z,7.72
2023-01-08T05:41:02.313Z,7.72
2023-01-08T05:41:34.784Z,7.72
2023-01-08T05:42:06.279Z,7.72
2023-01-08T05:42:35.146Z,7.72
2023-01-08T05:42:54.966Z,7.72
2023-01-08T05:43:26.287Z,7.72
2023-01-08T05:43:43.662Z,7.72
2023-01-08T05:44:14.260Z,7.72
2023-01-08T05:44:35.637Z,7.72
2023-01-08T05:45:04.209Z,7.72
2023-01-08T05:45:34.749Z,7.72
2023-01-08T05:46:07.478Z,7.72
2023-01-08T05:46:35.682Z,7.72
2023-01-08T05:46:54.307Z,7.72
2023-01-08T05:47:26.293Z,7.72
2023-01-08T05:47:43.222Z,7.72
2023-01-08T05:48:14.266Z,7.72
2023-01-08T05:48:35.635Z,7.72
2023-01-08T05:49:02.284Z,7.72
2023-01-08T05:49:34.798Z,7.72
2023-01-08T05:50:06.610Z,7.72
2023-01-08T05:50:35.238Z,7.72
2023-01-08T05:50:55.375Z,7.72
2023-01-08T05:51:26.308Z,7.72
2023-01-08T05:51:43.844Z,7.72
2023-01-08T05:52:14.289Z,7.72
2023-01-08T05:52:35.745Z,7.72
2023-01-08T05:53:02.251Z,7.72
2023-01-08T05:53:34.705Z,7.72
2023-01-08T05:54:06.253Z,7.72
2023-01-08T05:54:35.114Z,7.72
2023-01-08T05:54:54.244Z,7.72
2023-01-08T05:55:26.607Z,7.72
2023-01-08T05:55:43.886Z,7.72
2023-01-08T05:56:14.227Z,7.72
2023-01-08T05:56:35.655Z,7.72
2023-01-08T05:57:02.278Z,7.72
2023-01-08T05:57:34.927Z,7.72
2023-01-08T05:58:06.308Z,7.72
2023-01-08T05:58:35.252Z,7.72
2023-01-08T05:58:54.960Z,7.72
2023-01-08T05:59:26.274Z,7.72
2023-01-08T05:59:43.266Z,7.72
2023-01-08T06:00:15.672Z,7.77
2023-01-08T06:00:35.650Z,7.77